Time;durP1;ratioP1;P1;durP2;ratioP2;P2;SDS_P1;SDS_P2;PMS_P1;PMS_P2;Temp;Humidity;BMP_temperature;BMP_pressure;BME280_temperature;BME280_humidity;BME280_pressure;Samples;Min_cycle;Max_cycle;Signal;HPM_P1;HPM_P2
2023/08/30 00:00:45;;;;;;;10.13;5.30;;;;;;;22.04;100.00;98138.72;5178499;27;20058;-60
2023/08/30 00:03:12;;;;;;;7.40;5.10;;;;;;;21.84;100.00;98189.44;5178388;27;20360;-57
2023/08/30 00:05:39;;;;;;;11.38;5.57;;;;;;;21.91;100.00;98185.56;5178722;27;20062;-57
2023/08/30 00:08:05;;;;;;;8.57;5.15;;;;;;;21.83;100.00;98191.44;5178757;27;20058;-60
2023/08/30 00:10:31;;;;;;;7.95;5.03;;;;;;;21.88;100.00;98228.34;5178645;27;20084;-54
2023/08/30 00:12:57;;;;;;;8.45;6.25;;;;;;;21.96;100.00;98216.41;5178728;27;20163;-61
2023/08/30 00:15:23;;;;;;;11.00;5.13;;;;;;;22.08;100.00;98218.25;5178447;27;20057;-60
2023/08/30 00:17:51;;;;;;;9.70;5.60;;;;;;;21.81;100.00;98246.94;5178706;27;20065;-61
2023/08/30 00:20:18;;;;;;;8.93;4.93;;;;;;;21.69;100.00;98353.81;5178757;27;20068;-62
2023/08/30 00:22:44;;;;;;;9.52;5.75;;;;;;;21.73;100.00;98365.63;5182392;27;20133;-61
2023/08/30 00:25:09;;;;;;;12.32;6.07;;;;;;;22.08;100.00;98282.44;5182003;27;20042;-61
2023/08/30 00:27:35;;;;;;;7.82;6.00;;;;;;;21.84;100.00;98318.53;5181891;27;20085;-57
2023/08/30 00:30:01;;;;;;;11.75;6.18;;;;;;;21.81;100.00;98288.78;5181824;27;20410;-55
2023/08/30 00:32:27;;;;;;;10.25;6.35;;;;;;;21.93;100.00;98358.88;5182291;27;20140;-55
2023/08/30 00:34:53;;;;;;;15.23;6.40;;;;;;;21.91;100.00;98334.22;5182041;27;20061;-58
2023/08/30 00:37:20;;;;;;;9.25;6.00;;;;;;;21.82;100.00;98345.34;5181730;27;20058;-59
2023/08/30 00:39:46;;;;;;;10.00;5.63;;;;;;;21.83;100.00;98385.97;5181601;27;20382;-56
2023/08/30 00:42:11;;;;;;;13.93;5.65;;;;;;;21.80;100.00;98370.94;5181867;27;20081;-56
2023/08/30 00:44:37;;;;;;;10.05;5.88;;;;;;;21.83;100.00;98408.31;5181991;27;20069;-58
2023/08/30 00:47:04;;;;;;;9.40;6.63;;;;;;;21.97;100.00;98384.63;5181553;27;20315;-61
2023/08/30 00:49:31;;;;;;;11.93;6.18;;;;;;;21.73;100.00;98401.13;5181817;27;20402;-57
2023/08/30 00:51:58;;;;;;;13.00;6.13;;;;;;;22.06;100.00;98412.56;5181539;27;20087;-60
2023/08/30 00:54:24;;;;;;;10.75;6.30;;;;;;;21.83;100.00;98433.41;5181836;27;20512;-59
2023/08/30 00:56:51;;;;;;;12.82;6.40;;;;;;;21.88;100.00;98420.88;5181377;27;20394;-58
2023/08/30 00:59:17;;;;;;;20.45;7.53;;;;;;;21.77;100.00;98472.28;5181810;27;20063;-56
2023/08/30 01:01:45;;;;;;;10.57;6.68;;;;;;;21.94;100.00;98453.28;5181240;27;20411;-56
2023/08/30 01:04:10;;;;;;;11.77;6.50;;;;;;;21.84;100.00;98429.38;5181554;27;20061;-57
2023/08/30 01:06:36;;;;;;;11.23;6.50;;;;;;;21.66;100.00;98471.13;5181519;27;20065;-60
2023/08/30 01:09:03;;;;;;;14.70;7.32;;;;;;;21.91;100.00;98464.59;5181378;27;20090;-62
2023/08/30 01:11:36;;;;;;;9.93;6.68;;;;;;;22.02;100.00;98460.13;5181579;27;20093;-61
2023/08/30 01:14:08;;;;;;;10.87;9.47;;;;;;;21.90;100.00;98480.56;5181254;27;20067;-60
2023/08/30 01:16:35;;;;;;;14.10;7.03;;;;;;;21.80;100.00;98498.50;5181514;27;20431;-60
2023/08/30 01:19:13;;;;;;;11.55;7.28;;;;;;;22.09;100.00;98461.84;5180893;27;20411;-57
2023/08/30 01:21:52;;;;;;;10.32;7.50;;;;;;;21.75;100.00;98524.19;5181447;27;20046;-62
2023/08/30 01:24:28;;;;;;;12.68;7.03;;;;;;;21.89;100.00;98495.72;5180896;27;20424;-59
2023/08/30 01:27:08;;;;;;;12.70;7.75;;;;;;;21.79;100.00;98506.09;5180954;27;20136;-60
2023/08/30 01:29:36;;;;;;;14.95;7.82;;;;;;;21.73;100.00;98499.53;5181207;27;20089;-55
2023/08/30 01:32:04;;;;;;;17.88;7.40;;;;;;;21.72;100.00;98550.19;5180647;27;20384;-58
2023/08/30 01:34:31;;;;;;;12.70;8.02;;;;;;;21.79;100.00;98547.13;5181096;27;20098;-61
2023/08/30 01:36:58;;;;;;;9.75;7.57;;;;;;;21.62;100.00;98543.78;5180865;27;20046;-61
2023/08/30 01:39:24;;;;;;;11.98;8.30;;;;;;;21.58;100.00;98576.59;5180924;27;20473;-58
2023/08/30 01:41:52;;;;;;;14.68;8.40;;;;;;;21.61;100.00;98593.22;5180703;27;20142;-60
2023/08/30 01:44:19;;;;;;;11.48;7.72;;;;;;;21.61;100.00;98581.28;5181113;27;20042;-59
2023/08/30 01:46:47;;;;;;;16.05;8.23;;;;;;;21.68;100.00;98581.03;5180523;27;20050;-57
2023/08/30 01:49:15;;;;;;;11.40;7.18;;;;;;;21.48;100.00;98605.66;5180855;27;20050;-58
2023/08/30 01:51:41;;;;;;;16.67;8.57;;;;;;;21.69;100.00;98593.72;5180576;27;20050;-60
2023/08/30 01:54:09;;;;;;;14.63;8.13;;;;;;;21.42;100.00;98611.03;5180766;27;20429;-56
2023/08/30 01:56:35;;;;;;;11.75;7.20;;;;;;;21.43;100.00;98626.53;5181022;27;20384;-60
2023/08/30 01:59:01;;;;;;;11.70;8.35;;;;;;;21.56;100.00;98624.50;5180333;27;20509;-57
2023/08/30 02:01:27;;;;;;;8.63;7.30;;;;;;;21.48;100.00;98623.16;5180763;27;20061;-54
2023/08/30 02:03:53;;;;;;;15.23;8.15;;;;;;;21.43;100.00;98629.34;5180429;27;20046;-57
2023/08/30 02:06:26;;;;;;;14.95;9.30;;;;;;;21.43;100.00;98636.94;5180633;27;20351;-57
2023/08/30 02:08:58;;;;;;;9.67;8.23;;;;;;;21.61;100.00;98639.84;5180175;27;20413;-59
2023/08/30 02:11:28;;;;;;;14.10;8.25;;;;;;;21.66;100.00;98641.28;5180719;27;20057;-60
2023/08/30 02:13:58;;;;;;;11.35;8.18;;;;;;;21.77;100.00;98625.72;5180131;27;20523;-54
2023/08/30 02:16:26;;;;;;;13.60;8.93;;;;;;;21.87;100.00;98618.19;5180351;27;20408;-55
2023/08/30 02:18:53;;;;;;;10.93;8.18;;;;;;;21.58;100.00;98632.38;5180149;27;20050;-57
2023/08/30 02:21:20;;;;;;;12.38;8.23;;;;;;;21.54;100.00;98643.66;5180028;27;20056;-58
2023/08/30 02:23:50;;;;;;;14.45;8.88;;;;;;;21.65;100.00;98636.94;5180358;27;20060;-57
2023/08/30 02:26:16;;;;;;;14.15;8.32;;;;;;;21.55;100.00;98638.88;5179911;27;20141;-60
2023/08/30 02:28:41;;;;;;;15.18;8.60;;;;;;;21.40;100.00;98640.63;5180332;27;20102;-59
2023/08/30 02:31:07;;;;;;;12.43;8.50;;;;;;;21.31;100.00;98653.19;5179971;27;20053;-61
2023/08/30 02:33:33;;;;;;;11.45;8.18;;;;;;;21.32;100.00;98659.53;5180224;27;20050;-60
2023/08/30 02:36:00;;;;;;;11.80;8.15;;;;;;;21.12;100.00;98666.16;5179786;27;20133;-61
2023/08/30 02:38:26;;;;;;;10.88;8.55;;;;;;;21.54;100.00;98654.81;5179883;27;20141;-60
2023/08/30 02:40:52;;;;;;;12.88;11.48;;;;;;;21.57;100.00;98670.66;5179920;27;20046;-59
2023/08/30 02:43:17;;;;;;;12.35;8.63;;;;;;;21.41;100.00;98675.63;5178752;27;20050;-56
2023/08/30 02:45:43;;;;;;;13.68;9.57;;;;;;;21.54;100.00;98668.78;5179748;27;20092;-59
2023/08/30 02:48:09;;;;;;;17.00;9.18;;;;;;;21.48;100.00;98678.16;5179840;27;20057;-57
2023/08/30 02:50:35;;;;;;;13.80;9.13;;;;;;;21.81;100.00;98673.03;5179887;27;20073;-56
2023/08/30 02:53:03;;;;;;;13.00;9.77;;;;;;;21.31;100.00;98677.50;5179702;27;20420;-54
2023/08/30 02:55:30;;;;;;;15.48;8.68;;;;;;;21.60;100.00;98680.91;5179862;27;20046;-59
2023/08/30 02:57:56;;;;;;;15.30;8.93;;;;;;;21.34;100.00;98684.97;5179499;27;20042;-62
2023/08/30 03:00:22;;;;;;;11.15;8.80;;;;;;;21.14;100.00;98671.28;5179693;27;20407;-59
2023/08/30 03:02:49;;;;;;;11.60;8.77;;;;;;;21.23;100.00;98653.91;5179257;27;20049;-58
2023/08/30 03:05:15;;;;;;;12.32;8.77;;;;;;;21.13;100.00;98655.81;5179772;27;20102;-60
2023/08/30 03:07:41;;;;;;;11.15;8.70;;;;;;;20.97;100.00;98639.22;5179246;27;20050;-59
2023/08/30 03:10:08;;;;;;;14.38;9.77;;;;;;;20.89;100.00;98617.16;5179520;27;20073;-56
2023/08/30 03:12:34;;;;;;;13.57;9.25;;;;;;;20.85;100.00;98629.66;5179394;27;20190;-59
2023/08/30 03:15:00;;;;;;;15.45;9.98;;;;;;;20.81;100.00;98621.41;5179204;27;20341;-61
2023/08/30 03:17:26;;;;;;;14.32;9.63;;;;;;;20.97;100.00;98603.00;5179234;27;20190;-60
2023/08/30 03:19:53;;;;;;;18.65;9.82;;;;;;;21.41;100.00;98654.09;5178793;27;20057;-55
2023/08/30 03:22:19;;;;;;;13.95;9.13;;;;;;;21.44;100.00;98667.13;5179205;27;20050;-61
2023/08/30 03:24:44;;;;;;;15.23;10.57;;;;;;;21.33;100.00;98661.91;5179123;27;20305;-60
2023/08/30 03:27:11;;;;;;;15.23;9.60;;;;;;;21.00;100.00;98661.41;5179347;27;20459;-58
2023/08/30 03:29:37;;;;;;;15.63;10.02;;;;;;;21.20;100.00;98647.22;5178877;27;20415;-60
2023/08/30 03:32:03;;;;;;;24.02;10.82;;;;;;;21.10;100.00;98643.53;5179403;27;20077;-61
2023/08/30 03:34:29;;;;;;;14.40;10.15;;;;;;;21.17;100.00;98653.69;5178834;27;20451;-60
2023/08/30 03:36:55;;;;;;;18.80;10.90;;;;;;;21.44;100.00;98655.97;5179329;27;20050;-60
2023/08/30 03:39:21;;;;;;;11.32;10.02;;;;;;;21.28;100.00;98647.75;5178592;27;20046;-60
2023/08/30 03:41:47;;;;;;;16.02;10.20;;;;;;;21.26;100.00;98651.00;5179038;27;20050;-56
2023/08/30 03:44:14;;;;;;;18.85;10.68;;;;;;;21.28;100.00;98644.94;5179085;27;20065;-57
2023/08/30 03:46:40;;;;;;;14.73;11.30;;;;;;;21.54;100.00;98659.63;5178798;27;20536;-55
2023/08/30 03:49:06;;;;;;;16.80;10.30;;;;;;;21.35;100.00;98650.31;5179075;27;20082;-56
2023/08/30 03:51:31;;;;;;;12.52;10.07;;;;;;;21.23;100.00;98665.06;5178601;27;20051;-57
2023/08/30 03:53:57;;;;;;;14.73;10.05;;;;;;;21.72;100.00;98659.78;5179032;27;20050;-61
2023/08/30 03:56:23;;;;;;;18.73;11.18;;;;;;;21.91;100.00;98671.09;5182445;27;20121;-61
2023/08/30 03:58:49;;;;;;;14.95;9.75;;;;;;;21.83;100.00;98679.72;5182722;27;20046;-60
2023/08/30 04:01:16;;;;;;;15.82;9.65;;;;;;;21.94;100.00;98682.13;5182247;27;20111;-60
2023/08/30 04:03:42;;;;;;;16.05;9.70;;;;;;;22.35;100.00;98655.09;5182747;27;20466;-60
2023/08/30 04:06:07;;;;;;;13.63;9.48;;;;;;;22.62;100.00;98609.00;5182216;27;20053;-61
2023/08/30 04:08:33;;;;;;;13.18;9.88;;;;;;;22.37;100.00;98613.56;5182571;27;20046;-59
2023/08/30 04:10:59;;;;;;;12.40;9.90;;;;;;;22.53;100.00;98643.28;5182180;27;20054;-54
2023/08/30 04:13:25;;;;;;;12.70;9.82;;;;;;;22.53;100.00;98613.31;5182333;27;20065;-54
2023/08/30 04:15:51;;;;;;;15.07;9.55;;;;;;;22.82;100.00;98533.13;5182209;27;20050;-59
2023/08/30 04:18:18;;;;;;;12.88;9.40;;;;;;;22.73;100.00;98503.94;5182200;27;20050;-61
2023/08/30 04:20:45;;;;;;;14.90;9.82;;;;;;;22.95;100.00;98520.59;5182251;27;20153;-61
2023/08/30 04:23:11;;;;;;;15.45;9.88;;;;;;;23.37;100.00;98432.53;5182091;27;20050;-61
2023/08/30 04:25:37;;;;;;;12.57;9.50;;;;;;;22.87;100.00;98462.66;5182218;27;20050;-54
2023/08/30 04:28:04;;;;;;;12.50;8.73;;;;;;;23.25;100.00;98484.56;5181934;27;20137;-60
2023/08/30 04:30:30;;;;;;;13.07;11.63;;;;;;;23.57;100.00;98399.19;5181860;27;20049;-57
2023/08/30 04:32:56;;;;;;;14.02;9.60;;;;;;;23.38;100.00;98269.81;5181765;27;20050;-57
2023/08/30 04:35:22;;;;;;;10.98;9.27;;;;;;;23.76;100.00;98234.84;5182205;27;20046;-53
2023/08/30 04:37:48;;;;;;;14.43;10.38;;;;;;;24.11;100.00;98251.03;5181575;27;20190;-55
2023/08/30 04:40:14;;;;;;;12.82;10.75;;;;;;;23.91;100.00;98255.22;5181760;27;20046;-56
2023/08/30 04:42:40;;;;;;;14.32;10.00;;;;;;;23.83;100.00;98194.50;5181578;27;20380;-61
2023/08/30 04:45:08;;;;;;;14.00;9.85;;;;;;;23.95;100.00;98286.59;5181634;27;20046;-61
2023/08/30 04:47:34;;;;;;;13.15;9.65;;;;;;;24.30;100.00;98143.22;5181810;27;20366;-62
2023/08/30 04:50:00;;;;;;;12.05;9.98;;;;;;;24.33;100.00;98043.44;5181566;27;20050;-61
2023/08/30 04:52:26;;;;;;;13.25;12.05;;;;;;;25.10;100.00;97778.69;5181588;27;20142;-59
2023/08/30 04:54:53;;;;;;;14.18;11.15;;;;;;;25.20;100.00;97757.63;5181408;27;20309;-56
2023/08/30 04:57:19;;;;;;;15.90;10.50;;;;;;;25.72;100.00;97558.16;5181759;27;20125;-61
2023/08/30 04:59:45;;;;;;;15.68;9.55;;;;;;;24.66;100.00;97667.72;5181130;27;20217;-62
2023/08/30 05:02:11;;;;;;;14.52;12.95;;;;;;;25.09;100.00;97733.06;5181699;27;20057;-62
2023/08/30 05:04:37;;;;;;;14.90;13.50;;;;;;;25.32;100.00;97430.28;5181139;27;20049;-60
2023/08/30 05:07:03;;;;;;;14.93;10.00;;;;;;;25.55;100.00;97482.38;5180646;27;20050;-60
2023/08/30 05:09:30;;;;;;;15.10;10.10;;;;;;;24.75;100.00;97566.66;5181271;27;20141;-60
2023/08/30 05:11:56;;;;;;;14.30;12.95;;;;;;;25.46;100.00;97540.75;5181260;27;20145;-54
2023/08/30 05:14:22;;;;;;;15.98;13.40;;;;;;;26.15;100.00;97420.38;5181191;27;20068;-53
2023/08/30 05:16:49;;;;;;;14.27;12.88;;;;;;;25.93;100.00;97345.41;5180867;27;20142;-60
2023/08/30 05:19:16;;;;;;;12.40;9.55;;;;;;;26.75;100.00;97224.00;5181079;27;20046;-52
2023/08/30 05:21:42;;;;;;;11.45;8.38;;;;;;;26.26;100.00;97183.69;5180559;27;20419;-57
2023/08/30 05:24:08;;;;;;;16.23;12.13;;;;;;;26.77;100.00;97186.94;5181025;27;20088;-59
2023/08/30 05:26:35;;;;;;;13.35;12.15;;;;;;;27.37;100.00;97186.19;5180829;27;20054;-60
2023/08/30 05:29:01;;;;;;;15.23;13.05;;;;;;;27.28;100.00;97167.59;5181002;27;20177;-61
2023/08/30 05:31:26;;;;;;;14.18;12.10;;;;;;;26.91;100.00;97182.22;5180580;27;20082;-63
2023/08/30 05:33:52;;;;;;;13.98;11.98;;;;;;;27.77;100.00;97190.13;5180865;27;20042;-63
2023/08/30 05:36:18;;;;;;;17.17;13.45;;;;;;;27.98;100.00;97193.19;5180559;27;20099;-62
2023/08/30 05:38:44;;;;;;;15.32;13.80;;;;;;;27.76;100.00;97202.69;5180581;27;20136;-61
2023/08/30 05:41:10;;;;;;;19.85;13.35;;;;;;;27.42;100.00;97166.44;5180768;27;20144;-55
2023/08/30 05:43:37;;;;;;;13.95;12.25;;;;;;;27.71;100.00;97194.25;5178820;27;20065;-52
2023/08/30 05:46:03;;;;;;;13.77;12.38;;;;;;;28.23;100.00;97235.41;5172120;27;20140;-59
2023/08/30 05:48:29;;;;;;;17.10;13.40;;;;;;;27.89;100.00;97235.78;5165346;27;20125;-53
2023/08/30 05:50:55;;;;;;;16.80;12.85;;;;;;;27.76;100.00;97236.47;5158852;27;20172;-60
2023/08/30 05:53:21;;;;;;;15.90;12.63;;;;;;;28.93;100.00;97314.44;5159154;27;20080;-57
2023/08/30 05:55:46;;;;;;;18.80;14.07;;;;;;;29.04;100.00;97391.19;5159510;27;20060;-58
2023/08/30 05:58:13;;;;;;;13.77;12.38;;;;;;;29.20;100.00;97346.38;5159087;27;20062;-55
2023/08/30 06:00:40;;;;;;;19.13;12.45;;;;;;;29.79;100.00;97525.16;5159249;27;20110;-52
2023/08/30 06:03:06;;;;;;;16.70;13.07;;;;;;;29.81;100.00;97518.97;5159344;27;20053;-50
2023/08/30 06:05:32;;;;;;;16.65;12.50;;;;;;;30.74;100.00;97627.50;5159078;27;20408;-52
2023/08/30 06:07:58;;;;;;;15.98;13.55;;;;;;;29.82;100.00;97506.38;5159458;27;20085;-53
2023/08/30 06:10:24;;;;;;;14.43;12.93;;;;;;;30.44;100.00;97512.56;5159300;27;20054;-56
2023/08/30 06:12:49;;;;;;;17.52;13.07;;;;;;;29.38;100.00;97543.13;5159431;27;20047;-60
2023/08/30 06:15:15;;;;;;;17.92;13.50;;;;;;;30.28;100.00;97623.84;5159204;27;20153;-63
2023/08/30 06:17:42;;;;;;;15.10;13.43;;;;;;;31.53;100.00;97672.16;5158394;27;20295;-60
2023/08/30 06:20:09;;;;;;;19.23;13.40;;;;;;;31.83;100.00;97742.66;5158750;27;20145;-62
2023/08/30 06:22:35;;;;;;;18.67;13.07;;;;;;;32.27;100.00;97754.41;5159344;27;20051;-59
2023/08/30 06:25:01;;;;;;;15.80;12.77;;;;;;;31.23;100.00;97714.91;5159066;27;20331;-56
2023/08/30 06:27:26;;;;;;;13.75;12.32;;;;;;;31.41;100.00;97733.16;5159147;27;20152;-55
2023/08/30 06:29:52;;;;;;;19.10;13.68;;;;;;;31.65;100.00;97732.19;5158847;27;20059;-56
2023/08/30 06:32:18;;;;;;;16.05;13.30;;;;;;;32.14;100.00;97771.44;5159119;27;20400;-55
2023/08/30 06:34:45;;;;;;;18.27;13.93;;;;;;;30.33;100.00;97662.59;5158690;27;20051;-54
2023/08/30 06:37:11;;;;;;;14.07;12.77;;;;;;;31.22;100.00;97770.00;5158882;27;20186;-55
2023/08/30 06:39:37;;;;;;;14.40;12.57;;;;;;;31.47;100.00;97747.97;5158429;27;20139;-56
2023/08/30 06:42:03;;;;;;;16.55;13.95;;;;;;;31.06;100.00;97666.34;5158701;27;20082;-56
2023/08/30 06:44:29;;;;;;;17.85;13.77;;;;;;;32.34;100.00;97793.44;5158766;27;20051;-52
2023/08/30 06:46:55;;;;;;;18.60;12.90;;;;;;;31.46;100.00;97728.69;5158511;27;20418;-55
2023/08/30 06:49:21;;;;;;;20.25;13.30;;;;;;;32.40;100.00;97778.38;5158662;27;20047;-54
2023/08/30 06:51:48;;;;;;;18.38;14.02;;;;;;;32.09;100.00;97764.59;5158421;27;20133;-54
2023/08/30 06:54:14;;;;;;;14.30;12.90;;;;;;;31.58;100.00;97758.31;5158698;27;20061;-54
2023/08/30 06:56:40;;;;;;;20.17;13.82;;;;;;;30.77;100.00;97685.09;5158568;27;20137;-53
2023/08/30 06:59:05;;;;;;;18.38;14.07;;;;;;;32.08;100.00;97790.63;5158626;27;20626;-52
2023/08/30 07:01:31;;;;;;;18.85;14.77;;;;;;;31.67;100.00;97740.16;5158126;27;20046;-54
2023/08/30 07:03:57;;;;;;;16.60;14.70;;;;;;;31.86;100.00;97783.31;5158624;27;20046;-57
2023/08/30 07:06:24;;;;;;;21.27;14.93;;;;;;;31.71;100.00;97758.34;5158136;27;20043;-57
2023/08/30 07:08:50;;;;;;;16.83;13.88;;;;;;;31.54;100.00;97712.56;5157998;27;20060;-56
2023/08/30 07:11:16;;;;;;;18.40;14.48;;;;;;;32.95;100.00;97824.63;5157948;27;20464;-55
2023/08/30 07:13:42;;;;;;;19.58;13.50;;;;;;;33.01;100.00;97862.19;5158237;27;20137;-50
2023/08/30 07:16:09;;;;;;;16.60;13.07;;;;;;;33.11;100.00;97868.16;5158491;27;20139;-53
2023/08/30 07:18:34;;;;;;;15.88;12.48;;;;;;;32.37;100.00;97853.97;5158042;27;20061;-52
2023/08/30 07:21:00;;;;;;;18.05;13.77;;;;;;;32.72;100.00;97826.44;5158249;27;20050;-54
2023/08/30 07:23:26;;;;;;;17.75;13.48;;;;;;;32.76;100.00;97829.72;5157775;27;20427;-54
2023/08/30 07:25:53;;;;;;;22.05;13.93;;;;;;;32.39;100.00;97811.66;5158349;27;20074;-56
2023/08/30 07:28:19;;;;;;;25.48;14.77;;;;;;;32.80;100.00;97819.56;5157916;27;20059;-51
2023/08/30 07:30:45;;;;;;;18.77;15.43;;;;;;;31.87;100.00;97794.13;5157715;27;20440;-52
2023/08/30 07:33:11;;;;;;;20.05;14.18;;;;;;;32.74;100.00;97824.59;5157775;27;20138;-50
2023/08/30 07:35:39;;;;;;;18.33;13.35;;;;;;;33.39;100.00;97866.72;5158288;27;20090;-54
2023/08/30 07:38:05;;;;;;;19.40;12.93;;;;;;;32.94;100.00;97862.09;5158075;27;20113;-58
2023/08/30 07:40:32;;;;;;;23.95;13.25;;;;;;;34.48;100.00;97893.41;5157733;27;20085;-54
2023/08/30 07:42:58;;;;;;;22.70;13.90;;;;;;;34.83;100.00;97905.38;5157800;27;20046;-52
2023/08/30 07:45:24;;;;;;;20.52;13.93;;;;;;;34.99;100.00;97918.34;5157649;27;20051;-56
2023/08/30 07:47:50;;;;;;;15.00;13.10;;;;;;;34.54;100.00;97916.03;5157884;27;20054;-53
2023/08/30 07:50:16;;;;;;;21.25;13.95;;;;;;;34.02;100.00;97881.72;5157810;27;20135;-52
2023/08/30 07:52:42;;;;;;;20.70;13.25;;;;;;;33.49;100.00;97897.00;5158124;27;20199;-56
2023/08/30 07:55:09;;;;;;;19.65;13.45;;;;;;;34.20;100.00;97900.63;5157637;27;20050;-59
2023/08/30 07:57:35;;;;;;;18.73;13.20;;;;;;;33.14;100.00;97883.34;5157965;27;20082;-55
2023/08/30 08:00:03;;;;;;;17.17;14.13;;;;;;;32.92;100.00;97839.16;5157540;27;20051;-55
2023/08/30 08:02:28;;;;;;;18.35;13.60;;;;;;;33.97;100.00;97880.53;5157926;27;20138;-58
2023/08/30 08:04:54;;;;;;;17.08;13.52;;;;;;;35.13;100.00;97907.59;5157221;27;20051;-58
2023/08/30 08:07:20;;;;;;;19.58;14.00;;;;;;;33.68;100.00;97868.34;5157583;27;20403;-58
2023/08/30 08:09:46;;;;;;;18.58;14.65;;;;;;;34.52;100.00;97890.97;5157400;27;20078;-59
2023/08/30 08:12:12;;;;;;;18.40;14.25;;;;;;;34.64;100.00;97891.44;5157450;27;20405;-57
2023/08/30 08:14:38;;;;;;;20.92;13.55;;;;;;;34.40;100.00;97893.38;5157306;27;20138;-55
2023/08/30 08:17:05;;;;;;;24.33;13.35;;;;;;;33.81;100.00;97880.97;5157341;27;20046;-55
2023/08/30 08:19:31;;;;;;;21.80;13.18;;;;;;;34.46;100.00;97887.53;5157579;27;20137;-58
2023/08/30 08:21:57;;;;;;;22.95;13.60;;;;;;;35.27;100.00;97908.22;5157296;27;20051;-58
2023/08/30 08:24:23;;;;;;;13.98;12.48;;;;;;;34.47;100.00;97906.13;5157411;27;20105;-58
2023/08/30 08:26:49;;;;;;;20.00;14.50;;;;;;;34.04;100.00;97898.25;5157246;27;20051;-52
2023/08/30 08:29:15;;;;;;;23.52;13.90;;;;;;;33.86;100.00;97866.63;5157537;27;20051;-53
2023/08/30 08:31:41;;;;;;;16.65;13.55;;;;;;;34.11;100.00;97877.63;5157099;27;20145;-57
2023/08/30 08:34:10;;;;;;;17.17;13.10;;;;;;;35.61;100.00;97910.75;5157344;27;20158;-55
2023/08/30 08:36:36;;;;;;;16.73;13.27;;;;;;;34.85;100.00;97903.47;5157080;27;20062;-59
2023/08/30 08:39:04;;;;;;;19.42;13.48;;;;;;;34.70;100.00;97916.91;5156733;27;20549;-58
2023/08/30 08:41:39;;;;;;;21.20;12.90;;;;;;;35.48;100.00;97928.75;5157728;27;20046;-58
2023/08/30 08:44:06;;;;;;;16.33;13.05;;;;;;;33.32;100.00;97895.81;5160444;27;20480;-61
2023/08/30 08:46:34;;;;;;;20.20;13.05;;;;;;;33.96;100.00;97904.59;5160862;27;20050;-55
2023/08/30 08:49:05;;;;;;;21.48;13.55;;;;;;;33.74;100.00;97891.72;5160283;27;20046;-54
2023/08/30 08:51:34;;;;;;;18.60;12.27;;;;;;;32.97;100.00;97887.31;5160966;27;20535;-60
2023/08/30 08:54:04;;;;;;;17.05;13.25;;;;;;;34.06;100.00;97882.16;5160149;27;20054;-52
2023/08/30 08:56:30;;;;;;;19.65;13.32;;;;;;;32.54;100.00;97856.50;5160676;27;20141;-59
2023/08/30 08:58:56;;;;;;;19.73;13.20;;;;;;;32.96;100.00;97846.06;5160138;27;20097;-56
2023/08/30 09:01:23;;;;;;;23.20;13.30;;;;;;;32.20;100.00;97862.06;5160401;27;20054;-54
2023/08/30 09:03:50;;;;;;;19.88;12.65;;;;;;;32.43;100.00;97868.84;5160300;27;20137;-55
2023/08/30 09:06:16;;;;;;;26.00;13.38;;;;;;;33.15;100.00;97893.38;5160147;27;20415;-57
2023/08/30 09:08:43;;;;;;;17.10;11.82;;;;;;;34.38;100.00;97912.31;5160524;27;20047;-54
2023/08/30 09:11:09;;;;;;;19.00;12.32;;;;;;;34.43;100.00;97905.72;5160022;27;20106;-53
2023/08/30 09:13:35;;;;;;;19.15;12.88;;;;;;;34.23;100.00;97898.00;5160382;27;20051;-55
2023/08/30 09:16:02;;;;;;;25.38;12.90;;;;;;;34.03;100.00;97902.41;5160089;27;20404;-56
2023/08/30 09:18:28;;;;;;;24.00;11.85;;;;;;;34.49;100.00;97920.56;5160488;27;20046;-56
2023/08/30 09:21:05;;;;;;;19.25;11.57;;;;;;;34.42;100.00;97939.09;5159879;27;20309;-58
2023/08/30 09:23:31;;;;;;;17.40;11.68;;;;;;;33.92;100.00;97914.78;5160436;27;20074;-54
2023/08/30 09:25:57;;;;;;;22.45;11.65;;;;;;;34.24;100.00;97910.91;5159782;27;20061;-52
2023/08/30 09:28:23;;;;;;;17.08;11.85;;;;;;;34.39;100.00;97930.91;5159673;27;20051;-53
2023/08/30 09:30:50;;;;;;;23.23;11.73;;;;;;;34.37;100.00;97905.09;5160054;27;20082;-57
2023/08/30 09:33:20;;;;;;;19.70;11.75;;;;;;;33.18;100.00;97887.34;5159672;27;20437;-57
2023/08/30 09:35:46;;;;;;;22.67;11.85;;;;;;;34.55;100.00;97917.56;5159911;27;20046;-55
2023/08/30 09:38:17;;;;;;;19.40;10.82;;;;;;;33.64;100.00;97899.22;5159541;27;20093;-54
2023/08/30 09:40:43;;;;;;;24.55;11.63;;;;;;;33.56;100.00;97895.53;5159464;27;20062;-55
2023/08/30 09:43:10;;;;;;;16.40;10.77;;;;;;;33.15;100.00;97894.13;5159534;27;20332;-58
2023/08/30 09:45:36;;;;;;;20.20;12.00;;;;;;;33.66;100.00;97890.91;5159990;27;20427;-56
2023/08/30 09:48:03;;;;;;;18.55;12.00;;;;;;;33.64;100.00;97884.25;5159579;27;20055;-53
2023/08/30 09:50:34;;;;;;;21.48;11.98;;;;;;;33.14;100.00;97897.53;5159450;27;20137;-57
2023/08/30 09:53:03;;;;;;;17.63;11.27;;;;;;;33.87;100.00;97890.13;5159097;27;20396;-56
2023/08/30 09:55:30;;;;;;;16.63;10.73;;;;;;;33.52;100.00;97885.81;5159445;27;20051;-58
2023/08/30 09:57:56;;;;;;;18.25;10.20;;;;;;;33.50;100.00;97890.00;5159398;27;20042;-57
2023/08/30 10:00:23;;;;;;;14.85;10.57;;;;;;;33.10;100.00;97894.28;5159215;27;20061;-58
2023/08/30 10:02:49;;;;;;;15.90;10.15;;;;;;;33.43;100.00;97901.25;5159269;27;20086;-53
2023/08/30 10:05:15;;;;;;;21.05;10.18;;;;;;;32.98;100.00;97905.88;5159341;27;20133;-59
2023/08/30 10:07:44;;;;;;;13.50;10.10;;;;;;;32.95;100.00;97880.63;5159590;27;20051;-55
2023/08/30 10:10:10;;;;;;;20.48;9.80;;;;;;;32.77;100.00;97896.50;5159205;27;20073;-57
2023/08/30 10:12:36;;;;;;;17.17;11.00;;;;;;;32.78;100.00;97884.59;5159443;27;20054;-53
2023/08/30 10:15:05;;;;;;;16.77;10.23;;;;;;;33.17;100.00;97885.84;5159104;27;20145;-58
2023/08/30 10:17:34;;;;;;;18.48;10.13;;;;;;;32.51;100.00;97874.59;5159485;27;20059;-59
2023/08/30 10:20:04;;;;;;;17.83;9.63;;;;;;;32.91;100.00;97878.13;5158700;27;20436;-58
2023/08/30 10:22:32;;;;;;;16.92;9.85;;;;;;;33.33;100.00;97883.19;5159219;27;20093;-56
2023/08/30 10:25:02;;;;;;;20.45;10.25;;;;;;;33.49;100.00;97901.94;5159133;27;20051;-57
2023/08/30 10:27:30;;;;;;;18.35;9.45;;;;;;;33.46;100.00;97885.97;5158873;27;20042;-52
2023/08/30 10:29:56;;;;;;;19.10;10.18;;;;;;;33.86;100.00;97885.75;5158905;27;20093;-58
2023/08/30 10:32:23;;;;;;;19.77;10.30;;;;;;;33.14;100.00;97881.25;5158829;27;20090;-60
2023/08/30 10:34:50;;;;;;;21.27;9.00;;;;;;;33.87;100.00;97895.81;5159110;27;20046;-61
2023/08/30 10:37:22;;;;;;;16.33;9.68;;;;;;;34.28;100.00;97914.13;5158767;27;20395;-58
2023/08/30 10:39:49;;;;;;;19.65;9.52;;;;;;;33.89;100.00;97893.94;5158945;27;20047;-55
2023/08/30 10:42:16;;;;;;;19.77;9.93;;;;;;;35.14;100.00;97911.97;5158532;27;20043;-59
2023/08/30 10:44:48;;;;;;;17.73;9.52;;;;;;;34.50;100.00;97905.00;5159091;27;20137;-55
2023/08/30 10:47:23;;;;;;;15.67;9.87;;;;;;;34.62;100.00;97909.09;5158463;27;20047;-58
2023/08/30 10:49:50;;;;;;;15.77;9.32;;;;;;;32.90;100.00;97884.38;5158488;27;20280;-60
2023/08/30 10:52:15;;;;;;;17.33;9.95;;;;;;;33.55;100.00;97876.97;5158681;27;20200;-61
2023/08/30 10:54:42;;;;;;;19.83;10.30;;;;;;;33.66;100.00;97887.31;5158447;27;20558;-58
2023/08/30 10:57:13;;;;;;;15.80;9.85;;;;;;;34.89;100.00;97886.06;5158934;27;20046;-57
2023/08/30 10:59:40;;;;;;;15.90;9.27;;;;;;;33.53;100.00;97873.16;5158355;27;20133;-60
2023/08/30 11:02:06;;;;;;;24.42;10.07;;;;;;;33.64;100.00;97865.09;5158839;27;20133;-58
2023/08/30 11:04:32;;;;;;;20.20;10.40;;;;;;;33.85;100.00;97859.41;5157650;27;20053;-55
2023/08/30 11:06:59;;;;;;;15.98;10.40;;;;;;;33.33;100.00;97854.78;5158875;27;20133;-57
2023/08/30 11:09:26;;;;;;;17.90;10.10;;;;;;;33.20;100.00;97821.50;5158161;27;20074;-57